Bristow, Nebraska
Current Conditions -  °F | °C
As of 10:35 AM on Monday 24 Nov 2014 (Local Time) from KONL Reporting Station
Scattered Clouds Scattered Clouds  
Wind Chill: 13°   Ceiling: Unl
Heat Index: 27°   Visibility: 10mi
Dew Point: 18°   Wind: 22mph
Humidity: 68%   Direction: 320°NW
Pressure: 29.79"   Gusts: 30mph
Location:  42.84°N, 98.58°W
Report Text: KONL 241635Z AUTO 32019G26KT 10SM SCT020 M03/M08 A2979 RMK AO2 T10271079
Loading
Personal Weather Stations






























Interactive Weather Map New forecast layout! Learn more

10-Day Weather Forecast

Advertisements
Track Severe Weather on mobile